Lafayette, LA

9:00 PM CDT on June 25, 2017 (GMT -0500)
Downtown | | Change Station

Elev 56 ft 30.22 °N, 92.02 °W | Updated 1 minute ago

Scattered Clouds
Scattered Clouds
81.5 °F
Feels Like 87 °F
N
0.0
Wind Variable Wind from South
Gusts 0.0 mph

Today
High -- | Low -- °F
--% Chance of Precip.
Yesterday
High -- | Low -- °F
Precip. -- in
Pressure 30.11 in
Visibility 10.0 miles
Clouds Scattered Clouds 3700 ft
Heat Index 87 °F
Dew Point 74 °F
Humidity 78%
Rainfall 0.00 in
Snow Depth Not available.
6:08 AM 8:13 PM
Waxing Crescent, 6% visible
METAR KLFT 260153Z 00000KT 10SM SCT037 26/24 A3011 RMK AO2 SLP195 T02610239
Pressure 30.11 in
Visibility 10.0 miles
Clouds Scattered Clouds 3700 ft
Heat Index 87 °F
Dew Point 74 °F
Humidity 78%
Rainfall 0.00 in
Snow Depth Not available.
6:08 AM 8:13 PM
Waxing Crescent, 6% visible
METAR KLFT 260153Z 00000KT 10SM SCT037 26/24 A3011 RMK AO2 SLP195 T02610239

Get Severe Weather Alerts

Thanks for signing up!

Be on the lookout for a verification email in your inbox.

You'll start receiving the daily forecast at 6 AM.

×

10-Day Weather Forecast

Almanac

Astronomy

Jun. 25, 2017 Rise Set
Actual Time
Civil Twilight
Nautical Twilight
Astronomical Twilight
Moon
Length of Visible Light
Length of Day
Tomorrow will be .
, % of the Moon is Illuminated

Today's Extremes

State Highs State Lows

Community

WunderPhotos

Category 6

Welcome to Category 6. This is the collective home for Weather Underground's featured writeups by Dr. Jeff Masters (right), Bob Henson (left), Chris Burt, and other regular contributors.

Nearby

Air Quality

  Air Quality AQ Index Pollutant
Not available.

Snow Depth

Station Depth Elevation

Earthquake Activity

City Distance Mag. Time & Date
Minimum magnitude displayed is 2.5.

Coastal Water Temperatures

Place Temperature

Stations

Nearby Weather Stations

Station Location Temp. Windchill Dew Point Humidity Wind Precip. Elev Updated Type
                   

Watches & Warnings

There are currently no watches in effect.